createdAt,value
2023-01-17T00:04:54.752Z,93196.16
2023-01-17T00:09:58.736Z,93193.28
2023-01-17T00:15:00.588Z,93178.13
2023-01-17T00:20:02.110Z,93174.44
2023-01-17T00:25:03.694Z,93184.75
2023-01-17T00:30:05.761Z,93176.53
2023-01-17T00:35:07.574Z,93181.28
2023-01-17T00:40:10.282Z,93184.94
2023-01-17T00:45:11.779Z,93182.50
2023-01-17T00:50:13.278Z,93179.69
2023-01-17T00:55:14.847Z,93188.47
2023-01-17T01:00:18.686Z,93177.72
2023-01-17T01:05:20.810Z,93183.53
2023-01-17T01:10:22.484Z,93186.88
2023-01-17T01:15:24.007Z,93190.91
2023-01-17T01:20:25.637Z,93193.41
2023-01-17T01:25:27.151Z,93189.53
2023-01-17T01:30:28.747Z,93191.75
2023-01-17T01:35:30.240Z,93183.63
2023-01-17T01:40:31.744Z,93181.91
2023-01-17T01:45:33.397Z,93181.47
2023-01-17T01:50:36.811Z,93179.53
2023-01-17T01:55:41.599Z,93186.38
2023-01-17T02:00:43.194Z,93184.59
2023-01-17T02:05:45.119Z,93167.03
2023-01-17T02:10:46.970Z,93168.44
2023-01-17T02:16:02.792Z,93159.88
2023-01-17T02:21:13.086Z,93156.22
2023-01-17T02:26:47.541Z,93155.69
2023-01-17T02:32:04.897Z,93153.09
2023-01-17T02:37:15.082Z,93138.34
2023-01-17T02:42:20.346Z,93150.22
2023-01-17T02:47:29.077Z,93150.84
2023-01-17T02:53:09.454Z,93149.44
2023-01-17T02:58:41.012Z,93150.38
2023-01-17T03:03:52.636Z,93145.16
2023-01-17T03:08:54.424Z,93146.31
2023-01-17T03:13:57.304Z,93147.00
2023-01-17T03:18:58.773Z,93144.22
2023-01-17T03:24:00.290Z,93142.53
2023-01-17T03:29:02.132Z,93146.94
2023-01-17T03:34:03.698Z,93139.59
2023-01-17T03:39:05.200Z,93137.44
2023-01-17T03:44:06.733Z,93134.81
2023-01-17T03:49:09.454Z,93132.09
2023-01-17T03:54:10.972Z,93117.38
2023-01-17T03:59:13.363Z,93128.13
2023-01-17T04:04:14.948Z,93121.69
2023-01-17T04:09:16.478Z,93113.41
2023-01-17T04:14:17.999Z,93120.44
2023-01-17T04:19:19.894Z,93105.41
2023-01-17T04:24:21.386Z,93094.75
2023-01-17T04:29:22.958Z,93089.66
2023-01-17T04:34:24.613Z,93097.91
2023-01-17T04:39:26.176Z,93090.84
2023-01-17T04:44:27.716Z,93078.59
2023-01-17T04:49:29.247Z,93072.50
2023-01-17T04:54:30.762Z,93069.34
2023-01-17T04:59:35.021Z,93077.44
2023-01-17T05:04:36.568Z,93073.00
2023-01-17T05:09:38.043Z,93067.88
2023-01-17T05:14:39.674Z,93070.97
2023-01-17T05:19:41.174Z,93063.56
2023-01-17T05:24:47.460Z,93063.97
2023-01-17T05:29:48.942Z,93051.75
2023-01-17T05:34:50.512Z,93047.09
2023-01-17T05:39:52.086Z,93050.13
2023-01-17T05:44:53.662Z,93055.09
2023-01-17T05:49:55.098Z,93044.13
2023-01-17T05:54:56.593Z,93037.09
2023-01-17T05:59:58.132Z,93032.16
2023-01-17T06:05:01.330Z,93032.88
2023-01-17T06:10:05.401Z,93041.97
2023-01-17T06:15:07.776Z,93037.88
2023-01-17T06:20:10.969Z,93039.31
2023-01-17T06:25:12.559Z,93033.34
2023-01-17T06:30:14.275Z,93035.56
2023-01-17T06:35:15.797Z,93022.06
2023-01-17T06:40:17.754Z,93023.06
2023-01-17T06:45:19.992Z,93008.00
2023-01-17T06:50:21.827Z,93004.63
2023-01-17T06:55:24.567Z,92987.19
2023-01-17T07:00:27.306Z,92975.13
2023-01-17T07:05:29.338Z,92976.53
2023-01-17T07:10:30.908Z,92989.31
2023-01-17T07:15:32.371Z,92986.06
2023-01-17T07:20:33.895Z,92982.91
2023-01-17T07:25:35.356Z,92984.84
2023-01-17T07:30:36.882Z,92975.56
2023-01-17T07:35:38.492Z,92973.09
2023-01-17T07:40:42.354Z,92963.13
2023-01-17T07:45:49.364Z,92968.53
2023-01-17T07:50:59.901Z,92963.53
2023-01-17T07:56:06.569Z,92962.97
2023-01-17T08:01:10.914Z,92954.28
2023-01-17T08:06:23.618Z,92930.88
2023-01-17T08:11:25.935Z,92939.66
2023-01-17T08:16:27.835Z,92928.00
2023-01-17T08:21:29.372Z,92929.88
2023-01-17T08:26:30.916Z,92906.06
2023-01-17T08:31:35.011Z,92886.00
2023-01-17T08:36:36.599Z,92873.41
2023-01-17T08:41:38.598Z,92853.72
2023-01-17T08:46:40.411Z,92849.50
2023-01-17T08:51:41.853Z,92843.38
2023-01-17T08:56:43.309Z,92848.09
2023-01-17T09:01:45.003Z,92845.28
2023-01-17T09:06:46.626Z,92830.19
2023-01-17T09:11:48.162Z,92799.13
2023-01-17T09:16:49.698Z,92811.28
2023-01-17T09:21:51.306Z,92808.16
2023-01-17T09:26:52.970Z,92799.13
2023-01-17T09:31:54.478Z,92805.06
2023-01-17T09:36:56.224Z,92801.00
2023-01-17T09:42:20.588Z,92790.84
2023-01-17T09:47:40.439Z,92788.25
2023-01-17T09:52:42.045Z,92778.66
2023-01-17T09:58:02.242Z,92781.25
2023-01-17T10:03:09.832Z,92778.66
2023-01-17T10:08:17.563Z,92762.78
2023-01-17T10:13:42.027Z,92755.44
2023-01-17T10:18:58.412Z,92747.53
2023-01-17T10:24:09.208Z,92756.91
2023-01-17T10:29:16.724Z,92747.69
2023-01-17T10:34:27.156Z,92744.75
2023-01-17T10:39:30.943Z,92737.28
2023-01-17T10:44:59.286Z,92744.31
2023-01-17T10:50:03.532Z,92740.75
2023-01-17T10:55:16.863Z,92734.72
2023-01-17T11:00:40.509Z,92721.00
2023-01-17T11:05:43.346Z,92699.72
2023-01-17T11:10:48.704Z,92688.50
2023-01-17T11:15:54.277Z,92677.00
2023-01-17T11:21:18.563Z,92675.16
2023-01-17T11:26:25.091Z,92661.91
2023-01-17T11:31:27.222Z,92655.00
2023-01-17T11:36:30.729Z,92640.97
2023-01-17T11:41:41.561Z,92636.13
2023-01-17T11:46:43.062Z,92618.97
2023-01-17T11:51:44.656Z,92602.81
2023-01-17T11:56:46.437Z,92606.16
2023-01-17T12:01:57.595Z,92600.72
2023-01-17T12:07:10.787Z,92586.19
2023-01-17T12:12:27.752Z,92592.88
2023-01-17T12:17:48.516Z,92577.94
2023-01-17T12:23:21.016Z,92554.72
2023-01-17T12:28:46.331Z,92551.25
2023-01-17T12:33:55.452Z,92552.09
2023-01-17T12:39:00.969Z,92530.84
2023-01-17T12:44:02.451Z,92512.44
2023-01-17T12:49:34.745Z,92507.78
2023-01-17T12:54:44.319Z,92507.63
2023-01-17T12:59:48.606Z,92499.31
2023-01-17T13:05:15.504Z,92490.63
2023-01-17T13:10:31.809Z,92502.28
2023-01-17T13:15:39.841Z,92506.50
2023-01-17T13:20:44.283Z,92507.75
2023-01-17T13:25:49.826Z,92508.56
2023-01-17T13:31:10.093Z,92501.22
2023-01-17T13:36:30.651Z,92489.31
2023-01-17T13:41:54.422Z,92491.53
2023-01-17T13:47:18.714Z,92501.22
2023-01-17T13:52:20.219Z,92496.16
2023-01-17T13:57:24.483Z,92492.25
2023-01-17T14:02:32.081Z,92487.56
2023-01-17T14:07:36.021Z,92488.91
2023-01-17T14:12:38.851Z,92484.66
2023-01-17T14:17:52.737Z,92484.34
2023-01-17T14:23:01.510Z,92519.69
2023-01-17T14:28:21.436Z,92537.09
2023-01-17T14:33:28.563Z,92540.63
2023-01-17T14:38:32.340Z,92526.50
2023-01-17T14:43:37.621Z,92526.94
2023-01-17T14:48:40.536Z,92509.78
2023-01-17T14:53:52.857Z,92526.34
2023-01-17T14:59:21.529Z,92521.91
2023-01-17T15:04:28.113Z,92548.19
2023-01-17T15:09:35.975Z,92555.88
2023-01-17T15:14:42.640Z,92546.78
2023-01-17T15:19:46.853Z,92551.22
2023-01-17T15:24:49.430Z,92541.13
2023-01-17T15:29:51.701Z,92537.31
2023-01-17T15:34:53.556Z,92532.06
2023-01-17T15:40:21.521Z,92533.69
2023-01-17T15:45:29.683Z,92541.97
2023-01-17T15:50:32.062Z,92535.91
2023-01-17T15:55:39.019Z,92535.69
2023-01-17T16:00:40.623Z,92551.25
2023-01-17T16:05:42.192Z,92561.97
2023-01-17T16:10:44.439Z,92567.00
2023-01-17T16:15:45.970Z,92577.72
2023-01-17T16:20:51.535Z,92592.03
2023-01-17T16:25:52.990Z,92604.25
2023-01-17T16:30:54.476Z,92592.22
2023-01-17T16:35:56.278Z,92610.41
2023-01-17T16:40:57.812Z,92623.25
2023-01-17T16:45:59.520Z,92649.72
2023-01-17T16:51:05.917Z,92621.63
2023-01-17T16:56:13.698Z,92645.25
2023-01-17T17:01:16.933Z,92642.41
2023-01-17T17:06:18.717Z,92646.44
2023-01-17T17:11:22.264Z,92658.06
2023-01-17T17:16:26.373Z,92656.19
2023-01-17T17:21:28.927Z,92655.34
2023-01-17T17:26:33.917Z,92670.94
2023-01-17T17:31:35.392Z,92666.75
2023-01-17T17:36:37.886Z,92679.00
2023-01-17T17:41:42.472Z,92678.63
2023-01-17T17:46:44.030Z,92680.31
2023-01-17T17:51:45.932Z,92676.28
2023-01-17T17:56:47.580Z,92691.47
2023-01-17T18:01:49.181Z,92695.72
2023-01-17T18:06:50.736Z,92695.84
2023-01-17T18:11:52.311Z,92699.13
2023-01-17T18:16:53.825Z,92692.66
2023-01-17T18:21:55.377Z,92707.94
2023-01-17T18:26:57.858Z,92715.53
2023-01-17T18:31:59.335Z,92713.69
2023-01-17T18:37:01.022Z,92706.00
2023-01-17T18:42:02.573Z,92702.38
2023-01-17T18:47:04.100Z,92705.06
2023-01-17T18:52:05.629Z,92701.56
2023-01-17T18:57:07.076Z,92698.50
2023-01-17T19:02:09.258Z,92709.09
2023-01-17T19:07:12.639Z,92718.91
2023-01-17T19:12:14.211Z,92708.97
2023-01-17T19:17:15.645Z,92706.63
2023-01-17T19:22:17.094Z,92717.13
2023-01-17T19:27:18.515Z,92710.81
2023-01-17T19:32:20.006Z,92725.31
2023-01-17T19:37:21.534Z,92738.34
2023-01-17T19:42:23.034Z,92736.03
2023-01-17T19:47:24.535Z,92722.22
2023-01-17T19:52:26.062Z,92735.56
2023-01-17T19:57:30.384Z,92728.88
2023-01-17T20:02:32.135Z,92727.63
2023-01-17T20:07:33.737Z,92734.63
2023-01-17T20:12:35.195Z,92727.28
2023-01-17T20:17:36.791Z,92738.75
2023-01-17T20:22:45.680Z,92742.81
2023-01-17T20:27:47.216Z,92737.25
2023-01-17T20:32:48.741Z,92745.44
2023-01-17T20:37:53.230Z,92741.75
2023-01-17T20:42:54.717Z,92743.63
2023-01-17T20:47:56.467Z,92751.84
2023-01-17T20:52:58.076Z,92758.16
2023-01-17T20:57:59.832Z,92758.75
2023-01-17T21:03:01.350Z,92758.56
2023-01-17T21:08:02.880Z,92765.81
2023-01-17T21:13:04.372Z,92770.38
2023-01-17T21:18:05.977Z,92783.75
2023-01-17T21:23:07.570Z,92781.34
2023-01-17T21:28:09.079Z,92773.53
2023-01-17T21:33:10.573Z,92767.19
2023-01-17T21:38:12.649Z,92762.75
2023-01-17T21:43:15.029Z,92759.59
2023-01-17T21:48:16.532Z,92761.75
2023-01-17T21:53:18.055Z,92744.91
2023-01-17T21:58:19.704Z,92745.72
2023-01-17T22:03:21.232Z,92757.19
2023-01-17T22:08:22.717Z,92767.91
2023-01-17T22:13:24.216Z,92761.06
2023-01-17T22:18:25.911Z,92766.13
2023-01-17T22:23:27.352Z,92769.03
2023-01-17T22:28:30.801Z,92772.78
2023-01-17T22:33:32.361Z,92771.25
2023-01-17T22:38:34.483Z,92778.47
2023-01-17T22:43:41.536Z,92783.88
2023-01-17T22:48:43.084Z,92784.53
2023-01-17T22:53:49.897Z,92796.25
2023-01-17T22:58:51.356Z,92789.53
2023-01-17T23:03:57.361Z,92794.63
2023-01-17T23:09:01.253Z,92793.75
2023-01-17T23:14:02.685Z,92785.28
2023-01-17T23:19:04.132Z,92784.69
2023-01-17T23:24:05.878Z,92786.91
2023-01-17T23:29:07.417Z,92798.16
2023-01-17T23:34:08.891Z,92796.53
2023-01-17T23:39:10.350Z,92786.25
2023-01-17T23:44:11.781Z,92800.59
2023-01-17T23:49:13.302Z,92793.50
2023-01-17T23:54:14.787Z,92800.00
2023-01-17T23:59:16.387Z,92811.41
